sensor_id;sensor_type;location;lat;lon;timestamp;pressure;altitude;pressure_sealevel;temperature;humidity
6216;BME280;3141;49.234;9.326;2023-11-22T00:00:02;100108.38;;;10.18;68.64
6216;BME280;3141;49.234;9.326;2023-11-22T00:01:05;100105.75;;;10.18;68.99
6216;BME280;3141;49.234;9.326;2023-11-22T00:02:06;100114.06;;;10.13;69.20
6216;BME280;3141;49.234;9.326;2023-11-22T00:03:07;100107.69;;;10.16;69.79
6216;BME280;3141;49.234;9.326;2023-11-22T00:04:09;100118.06;;;10.27;69.32
6216;BME280;3141;49.234;9.326;2023-11-22T00:05:10;100116.53;;;10.34;69.82
6216;BME280;3141;49.234;9.326;2023-11-22T00:06:11;100117.50;;;10.33;69.71
6216;BME280;3141;49.234;9.326;2023-11-22T00:07:12;100117.81;;;10.30;69.49
6216;BME280;3141;49.234;9.326;2023-11-22T00:08:13;100122.44;;;10.09;69.37
6216;BME280;3141;49.234;9.326;2023-11-22T00:09:14;100127.00;;;10.07;69.24
6216;BME280;3141;49.234;9.326;2023-11-22T00:10:15;100121.31;;;9.83;69.79
6216;BME280;3141;49.234;9.326;2023-11-22T00:11:16;100116.44;;;9.69;69.04
6216;BME280;3141;49.234;9.326;2023-11-22T00:12:17;100119.66;;;9.72;69.86
6216;BME280;3141;49.234;9.326;2023-11-22T00:13:18;100122.31;;;9.82;69.84
6216;BME280;3141;49.234;9.326;2023-11-22T00:14:19;100123.69;;;9.76;69.19
6216;BME280;3141;49.234;9.326;2023-11-22T00:15:20;100124.94;;;9.82;69.02
6216;BME280;3141;49.234;9.326;2023-11-22T00:16:21;100134.38;;;9.94;68.49
6216;BME280;3141;49.234;9.326;2023-11-22T00:17:22;100128.53;;;10.00;68.25
6216;BME280;3141;49.234;9.326;2023-11-22T00:18:24;100141.28;;;10.04;68.71
6216;BME280;3141;49.234;9.326;2023-11-22T00:19:26;100139.69;;;9.75;67.65
6216;BME280;3141;49.234;9.326;2023-11-22T00:20:27;100133.13;;;9.50;67.12
6216;BME280;3141;49.234;9.326;2023-11-22T00:21:28;100141.03;;;9.50;68.95
6216;BME280;3141;49.234;9.326;2023-11-22T00:22:29;100140.91;;;9.61;68.49
6216;BME280;3141;49.234;9.326;2023-11-22T00:23:32;100135.22;;;9.47;67.98
6216;BME280;3141;49.234;9.326;2023-11-22T00:24:33;100142.16;;;9.57;68.20
6216;BME280;3141;49.234;9.326;2023-11-22T00:25:34;100136.75;;;9.78;67.74
6216;BME280;3141;49.234;9.326;2023-11-22T00:26:35;100141.03;;;9.98;67.77
6216;BME280;3141;49.234;9.326;2023-11-22T00:27:36;100137.44;;;9.80;68.04
6216;BME280;3141;49.234;9.326;2023-11-22T00:28:38;100134.09;;;9.97;68.51
6216;BME280;3141;49.234;9.326;2023-11-22T00:29:39;100132.28;;;10.07;67.84
6216;BME280;3141;49.234;9.326;2023-11-22T00:30:40;100133.69;;;10.11;67.22
6216;BME280;3141;49.234;9.326;2023-11-22T00:31:41;100139.13;;;10.09;66.58
6216;BME280;3141;49.234;9.326;2023-11-22T00:32:43;100142.03;;;10.16;66.57
6216;BME280;3141;49.234;9.326;2023-11-22T00:33:44;100138.13;;;10.01;66.54
6216;BME280;3141;49.234;9.326;2023-11-22T00:34:45;100135.91;;;9.96;66.73
6216;BME280;3141;49.234;9.326;2023-11-22T00:35:46;100135.22;;;9.85;66.83
6216;BME280;3141;49.234;9.326;2023-11-22T00:36:46;100140.91;;;9.90;67.41
6216;BME280;3141;49.234;9.326;2023-11-22T00:37:48;100137.13;;;9.92;66.84
6216;BME280;3141;49.234;9.326;2023-11-22T00:38:49;100135.47;;;9.91;66.48
6216;BME280;3141;49.234;9.326;2023-11-22T00:39:50;100141.72;;;10.00;66.17
6216;BME280;3141;49.234;9.326;2023-11-22T00:40:51;100142.13;;;10.05;66.99
6216;BME280;3141;49.234;9.326;2023-11-22T00:41:52;100144.97;;;10.13;66.62
6216;BME280;3141;49.234;9.326;2023-11-22T00:42:53;100147.72;;;10.02;65.32
6216;BME280;3141;49.234;9.326;2023-11-22T00:43:55;100145.78;;;9.85;65.28
6216;BME280;3141;49.234;9.326;2023-11-22T00:44:55;100143.53;;;9.61;65.80
6216;BME280;3141;49.234;9.326;2023-11-22T00:45:56;100151.75;;;9.68;65.06
6216;BME280;3141;49.234;9.326;2023-11-22T00:46:58;100146.59;;;9.57;64.77
6216;BME280;3141;49.234;9.326;2023-11-22T00:47:59;100144.63;;;9.40;65.52
6216;BME280;3141;49.234;9.326;2023-11-22T00:49:00;100154.50;;;9.28;65.48
6216;BME280;3141;49.234;9.326;2023-11-22T00:50:01;100146.84;;;9.44;65.04
6216;BME280;3141;49.234;9.326;2023-11-22T00:51:04;100151.81;;;9.18;65.93
6216;BME280;3141;49.234;9.326;2023-11-22T00:52:09;100157.66;;;9.12;65.56
6216;BME280;3141;49.234;9.326;2023-11-22T00:53:10;100155.75;;;9.33;65.67
6216;BME280;3141;49.234;9.326;2023-11-22T00:54:11;100157.69;;;9.41;65.57
6216;BME280;3141;49.234;9.326;2023-11-22T00:55:12;100159.91;;;9.36;65.30
6216;BME280;3141;49.234;9.326;2023-11-22T00:56:13;100162.97;;;9.41;65.33
6216;BME280;3141;49.234;9.326;2023-11-22T00:57:14;100162.69;;;9.34;64.78
6216;BME280;3141;49.234;9.326;2023-11-22T00:58:15;100160.38;;;9.01;63.98
6216;BME280;3141;49.234;9.326;2023-11-22T00:59:16;100153.47;;;9.10;64.77
6216;BME280;3141;49.234;9.326;2023-11-22T01:00:17;100157.03;;;8.99;64.24
6216;BME280;3141;49.234;9.326;2023-11-22T01:01:22;100166.34;;;9.03;64.68
6216;BME280;3141;49.234;9.326;2023-11-22T01:02:23;100169.56;;;9.07;65.17
6216;BME280;3141;49.234;9.326;2023-11-22T01:03:24;100168.13;;;8.93;64.52
6216;BME280;3141;49.234;9.326;2023-11-22T01:04:24;100170.22;;;8.99;65.13
6216;BME280;3141;49.234;9.326;2023-11-22T01:05:25;100180.25;;;9.15;65.49
6216;BME280;3141;49.234;9.326;2023-11-22T01:06:27;100175.19;;;9.32;65.82
6216;BME280;3141;49.234;9.326;2023-11-22T01:07:27;100177.06;;;9.11;63.51
6216;BME280;3141;49.234;9.326;2023-11-22T01:08:30;100177.25;;;9.19;64.68
6216;BME280;3141;49.234;9.326;2023-11-22T01:09:31;100174.84;;;9.16;64.30
6216;BME280;3141;49.234;9.326;2023-11-22T01:10:32;100178.66;;;9.33;64.34
6216;BME280;3141;49.234;9.326;2023-11-22T01:11:33;100182.16;;;9.43;64.47
6216;BME280;3141;49.234;9.326;2023-11-22T01:12:34;100182.44;;;9.40;64.14
6216;BME280;3141;49.234;9.326;2023-11-22T01:13:35;100182.09;;;9.14;63.67
6216;BME280;3141;49.234;9.326;2023-11-22T01:14:41;100181.19;;;9.04;63.68
6216;BME280;3141;49.234;9.326;2023-11-22T01:15:42;100184.44;;;9.17;63.37
6216;BME280;3141;49.234;9.326;2023-11-22T01:16:45;100183.41;;;8.99;62.91
6216;BME280;3141;49.234;9.326;2023-11-22T01:17:46;100189.22;;;8.93;62.48
6216;BME280;3141;49.234;9.326;2023-11-22T01:18:47;100189.28;;;9.12;63.03
6216;BME280;3141;49.234;9.326;2023-11-22T01:19:47;100179.00;;;9.09;63.13
6216;BME280;3141;49.234;9.326;2023-11-22T01:20:48;100188.28;;;9.04;64.02
6216;BME280;3141;49.234;9.326;2023-11-22T01:21:49;100191.22;;;9.10;62.83
6216;BME280;3141;49.234;9.326;2023-11-22T01:22:50;100192.38;;;9.17;62.44
6216;BME280;3141;49.234;9.326;2023-11-22T01:23:51;100193.75;;;9.21;62.89
6216;BME280;3141;49.234;9.326;2023-11-22T01:24:52;100197.69;;;9.37;62.83
6216;BME280;3141;49.234;9.326;2023-11-22T01:25:54;100200.19;;;9.38;62.37
6216;BME280;3141;49.234;9.326;2023-11-22T01:26:54;100202.34;;;9.23;61.76
6216;BME280;3141;49.234;9.326;2023-11-22T01:27:56;100202.44;;;9.03;62.26
6216;BME280;3141;49.234;9.326;2023-11-22T01:28:57;100196.22;;;9.04;63.04
6216;BME280;3141;49.234;9.326;2023-11-22T01:29:58;100202.19;;;9.06;63.20
6216;BME280;3141;49.234;9.326;2023-11-22T01:31:00;100202.34;;;9.14;63.36
6216;BME280;3141;49.234;9.326;2023-11-22T01:32:04;100209.53;;;9.02;63.63
6216;BME280;3141;49.234;9.326;2023-11-22T01:33:05;100209.78;;;8.99;64.04
6216;BME280;3141;49.234;9.326;2023-11-22T01:34:06;100203.44;;;9.11;64.38
6216;BME280;3141;49.234;9.326;2023-11-22T01:35:07;100206.13;;;9.21;64.63
6216;BME280;3141;49.234;9.326;2023-11-22T01:36:08;100203.91;;;8.86;65.13
6216;BME280;3141;49.234;9.326;2023-11-22T01:37:09;100200.41;;;8.86;66.17
6216;BME280;3141;49.234;9.326;2023-11-22T01:38:10;100197.19;;;8.73;65.93
6216;BME280;3141;49.234;9.326;2023-11-22T01:39:12;100201.91;;;8.79;66.52
6216;BME280;3141;49.234;9.326;2023-11-22T01:40:14;100200.72;;;8.62;65.81
6216;BME280;3141;49.234;9.326;2023-11-22T01:41:15;100201.78;;;8.50;65.60
6216;BME280;3141;49.234;9.326;2023-11-22T01:42:17;100199.28;;;8.17;66.34
6216;BME280;3141;49.234;9.326;2023-11-22T01:43:19;100197.59;;;8.27;67.63
6216;BME280;3141;49.234;9.326;2023-11-22T01:44:21;100204.59;;;8.38;67.48
6216;BME280;3141;49.234;9.326;2023-11-22T01:45:22;100210.97;;;8.56;67.37
6216;BME280;3141;49.234;9.326;2023-11-22T01:46:24;100212.66;;;8.66;67.65
6216;BME280;3141;49.234;9.326;2023-11-22T01:47:26;100215.06;;;8.69;67.27
6216;BME280;3141;49.234;9.326;2023-11-22T01:48:28;100218.13;;;8.74;67.29
6216;BME280;3141;49.234;9.326;2023-11-22T01:49:29;100217.88;;;8.77;66.33
6216;BME280;3141;49.234;9.326;2023-11-22T01:50:30;100216.03;;;8.27;66.73
6216;BME280;3141;49.234;9.326;2023-11-22T01:51:31;100222.28;;;8.15;67.50
6216;BME280;3141;49.234;9.326;2023-11-22T01:52:32;100223.75;;;8.08;67.38
6216;BME280;3141;49.234;9.326;2023-11-22T01:53:33;100227.28;;;8.18;67.84
6216;BME280;3141;49.234;9.326;2023-11-22T01:54:34;100226.56;;;8.27;68.06
6216;BME280;3141;49.234;9.326;2023-11-22T01:55:35;100227.56;;;8.15;67.71
6216;BME280;3141;49.234;9.326;2023-11-22T01:56:37;100227.56;;;8.15;67.85
6216;BME280;3141;49.234;9.326;2023-11-22T01:57:39;100236.88;;;8.19;67.65
6216;BME280;3141;49.234;9.326;2023-11-22T01:58:40;100231.13;;;8.25;67.95
6216;BME280;3141;49.234;9.326;2023-11-22T01:59:43;100240.53;;;8.07;68.78
6216;BME280;3141;49.234;9.326;2023-11-22T02:00:49;100239.34;;;8.00;69.51
6216;BME280;3141;49.234;9.326;2023-11-22T02:01:50;100241.44;;;7.85;69.00
6216;BME280;3141;49.234;9.326;2023-11-22T02:02:51;100236.75;;;7.89;69.70
6216;BME280;3141;49.234;9.326;2023-11-22T02:03:52;100237.41;;;7.81;70.05
6216;BME280;3141;49.234;9.326;2023-11-22T02:04:54;100243.44;;;7.93;69.45
6216;BME280;3141;49.234;9.326;2023-11-22T02:05:55;100238.16;;;7.61;70.35
6216;BME280;3141;49.234;9.326;2023-11-22T02:06:56;100244.38;;;7.71;70.75
6216;BME280;3141;49.234;9.326;2023-11-22T02:07:57;100249.91;;;7.89;70.75
6216;BME280;3141;49.234;9.326;2023-11-22T02:08:58;100251.63;;;7.79;70.23
6216;BME280;3141;49.234;9.326;2023-11-22T02:10:00;100250.97;;;7.55;70.41
6216;BME280;3141;49.234;9.326;2023-11-22T02:11:01;100248.53;;;7.63;70.70
6216;BME280;3141;49.234;9.326;2023-11-22T02:12:06;100260.97;;;7.72;70.68
6216;BME280;3141;49.234;9.326;2023-11-22T02:13:07;100258.19;;;7.84;70.19
6216;BME280;3141;49.234;9.326;2023-11-22T02:14:08;100254.25;;;7.90;69.72
6216;BME280;3141;49.234;9.326;2023-11-22T02:15:12;100255.97;;;7.69;69.75
6216;BME280;3141;49.234;9.326;2023-11-22T02:16:14;100251.75;;;7.77;70.26
6216;BME280;3141;49.234;9.326;2023-11-22T02:17:15;100248.25;;;7.88;70.18
6216;BME280;3141;49.234;9.326;2023-11-22T02:18:17;100243.13;;;7.86;69.83
6216;BME280;3141;49.234;9.326;2023-11-22T02:19:18;100243.06;;;7.97;69.40
6216;BME280;3141;49.234;9.326;2023-11-22T02:20:20;100240.13;;;8.11;69.24
6216;BME280;3141;49.234;9.326;2023-11-22T02:21:21;100245.22;;;8.03;69.04
6216;BME280;3141;49.234;9.326;2023-11-22T02:22:22;100235.53;;;8.04;69.08
6216;BME280;3141;49.234;9.326;2023-11-22T02:23:23;100235.16;;;7.97;69.07
6216;BME280;3141;49.234;9.326;2023-11-22T02:24:24;100229.88;;;8.08;68.91
6216;BME280;3141;49.234;9.326;2023-11-22T02:25:25;100236.94;;;7.76;69.06
6216;BME280;3141;49.234;9.326;2023-11-22T02:26:26;100238.75;;;7.65;69.28
6216;BME280;3141;49.234;9.326;2023-11-22T02:27:27;100235.84;;;7.79;69.55
6216;BME280;3141;49.234;9.326;2023-11-22T02:28:28;100234.97;;;7.89;69.55
6216;BME280;3141;49.234;9.326;2023-11-22T02:29:29;100236.28;;;7.95;68.50
6216;BME280;3141;49.234;9.326;2023-11-22T02:30:30;100236.63;;;7.90;68.08
6216;BME280;3141;49.234;9.326;2023-11-22T02:31:31;100238.94;;;7.84;67.69
6216;BME280;3141;49.234;9.326;2023-11-22T02:32:32;100241.09;;;7.79;67.53
6216;BME280;3141;49.234;9.326;2023-11-22T02:33:34;100234.00;;;7.90;68.21
6216;BME280;3141;49.234;9.326;2023-11-22T02:34:36;100247.22;;;8.11;67.33
6216;BME280;3141;49.234;9.326;2023-11-22T02:35:36;100249.06;;;8.20;67.74
6216;BME280;3141;49.234;9.326;2023-11-22T02:36:37;100254.81;;;8.25;67.68
6216;BME280;3141;49.234;9.326;2023-11-22T02:37:38;100247.28;;;8.20;67.02
6216;BME280;3141;49.234;9.326;2023-11-22T02:38:39;100251.50;;;8.12;66.74
6216;BME280;3141;49.234;9.326;2023-11-22T02:39:51;100246.41;;;7.99;66.83
6216;BME280;3141;49.234;9.326;2023-11-22T02:40:55;100245.50;;;7.78;66.74
6216;BME280;3141;49.234;9.326;2023-11-22T02:41:56;100241.47;;;7.74;67.04
6216;BME280;3141;49.234;9.326;2023-11-22T02:42:57;100250.50;;;7.92;67.19
6216;BME280;3141;49.234;9.326;2023-11-22T02:43:58;100242.31;;;8.06;66.99
6216;BME280;3141;49.234;9.326;2023-11-22T02:44:59;100244.94;;;8.06;66.99
6216;BME280;3141;49.234;9.326;2023-11-22T02:46:00;100239.94;;;8.03;67.58
6216;BME280;3141;49.234;9.326;2023-11-22T02:47:01;100247.84;;;8.03;66.39
6216;BME280;3141;49.234;9.326;2023-11-22T02:48:02;100241.16;;;7.99;66.99
6216;BME280;3141;49.234;9.326;2023-11-22T02:49:04;100244.44;;;7.81;66.49
6216;BME280;3141;49.234;9.326;2023-11-22T02:50:05;100249.63;;;7.71;67.07
6216;BME280;3141;49.234;9.326;2023-11-22T02:51:06;100243.78;;;7.68;66.95
6216;BME280;3141;49.234;9.326;2023-11-22T02:52:07;100247.34;;;7.67;66.80
6216;BME280;3141;49.234;9.326;2023-11-22T02:53:08;100251.97;;;7.85;66.49
6216;BME280;3141;49.234;9.326;2023-11-22T02:54:09;100266.34;;;7.81;66.42
6216;BME280;3141;49.234;9.326;2023-11-22T02:55:10;100274.47;;;7.78;66.86
6216;BME280;3141;49.234;9.326;2023-11-22T02:56:11;100274.66;;;7.97;66.47
6216;BME280;3141;49.234;9.326;2023-11-22T02:57:12;100280.44;;;7.91;66.80
6216;BME280;3141;49.234;9.326;2023-11-22T02:58:13;100275.28;;;7.90;66.08
6216;BME280;3141;49.234;9.326;2023-11-22T02:59:14;100285.81;;;7.90;66.30
6216;BME280;3141;49.234;9.326;2023-11-22T03:00:15;100287.94;;;7.96;66.30
6216;BME280;3141;49.234;9.326;2023-11-22T03:01:16;100288.47;;;7.79;66.54
6216;BME280;3141;49.234;9.326;2023-11-22T03:02:18;100293.28;;;7.74;66.13
6216;BME280;3141;49.234;9.326;2023-11-22T03:03:19;100294.72;;;7.67;66.11
6216;BME280;3141;49.234;9.326;2023-11-22T03:04:20;100294.50;;;7.59;66.67
6216;BME280;3141;49.234;9.326;2023-11-22T03:05:22;100299.13;;;7.66;66.62
6216;BME280;3141;49.234;9.326;2023-11-22T03:06:23;100304.78;;;7.62;67.29
6216;BME280;3141;49.234;9.326;2023-11-22T03:07:25;100302.13;;;7.62;66.93
6216;BME280;3141;49.234;9.326;2023-11-22T03:08:26;100307.19;;;7.43;66.93
6216;BME280;3141;49.234;9.326;2023-11-22T03:09:27;100300.34;;;7.51;67.06
6216;BME280;3141;49.234;9.326;2023-11-22T03:10:28;100298.16;;;7.78;66.73
6216;BME280;3141;49.234;9.326;2023-11-22T03:11:31;100297.28;;;7.89;66.30
6216;BME280;3141;49.234;9.326;2023-11-22T03:12:32;100300.22;;;7.64;66.74
6216;BME280;3141;49.234;9.326;2023-11-22T03:13:33;100297.81;;;7.83;66.80
6216;BME280;3141;49.234;9.326;2023-11-22T03:14:35;100308.34;;;7.72;67.48
6216;BME280;3141;49.234;9.326;2023-11-22T03:15:36;100306.53;;;7.83;66.83
6216;BME280;3141;49.234;9.326;2023-11-22T03:16:39;100310.97;;;7.83;66.71
6216;BME280;3141;49.234;9.326;2023-11-22T03:17:40;100312.50;;;7.85;66.45
6216;BME280;3141;49.234;9.326;2023-11-22T03:18:42;100309.13;;;7.94;66.64
6216;BME280;3141;49.234;9.326;2023-11-22T03:19:43;100311.38;;;8.10;66.30
6216;BME280;3141;49.234;9.326;2023-11-22T03:20:45;100311.75;;;8.05;66.50
6216;BME280;3141;49.234;9.326;2023-11-22T03:21:47;100310.16;;;8.14;66.24
6216;BME280;3141;49.234;9.326;2023-11-22T03:22:48;100306.28;;;8.18;66.46
6216;BME280;3141;49.234;9.326;2023-11-22T03:23:51;100307.56;;;8.03;66.19
6216;BME280;3141;49.234;9.326;2023-11-22T03:24:52;100304.31;;;8.10;66.00
6216;BME280;3141;49.234;9.326;2023-11-22T03:25:53;100310.06;;;8.04;67.00
6216;BME280;3141;49.234;9.326;2023-11-22T03:26:54;100303.97;;;8.04;67.41
6216;BME280;3141;49.234;9.326;2023-11-22T03:27:57;100309.91;;;8.17;67.57
6216;BME280;3141;49.234;9.326;2023-11-22T03:28:57;100305.34;;;8.19;68.00
6216;BME280;3141;49.234;9.326;2023-11-22T03:29:59;100312.66;;;8.15;66.68
6216;BME280;3141;49.234;9.326;2023-11-22T03:31:00;100325.72;;;8.17;66.67
6216;BME280;3141;49.234;9.326;2023-11-22T03:32:04;100325.44;;;8.20;66.77
6216;BME280;3141;49.234;9.326;2023-11-22T03:33:05;100326.31;;;8.09;67.51
6216;BME280;3141;49.234;9.326;2023-11-22T03:34:06;100319.66;;;7.94;67.95
6216;BME280;3141;49.234;9.326;2023-11-22T03:35:07;100325.44;;;7.88;67.49
6216;BME280;3141;49.234;9.326;2023-11-22T03:36:08;100325.78;;;7.84;67.85
6216;BME280;3141;49.234;9.326;2023-11-22T03:37:11;100325.56;;;7.76;67.67
6216;BME280;3141;49.234;9.326;2023-11-22T03:38:13;100333.09;;;7.80;67.93
6216;BME280;3141;49.234;9.326;2023-11-22T03:39:15;100332.50;;;7.77;67.15
6216;BME280;3141;49.234;9.326;2023-11-22T03:40:16;100336.44;;;7.82;66.91
6216;BME280;3141;49.234;9.326;2023-11-22T03:41:17;100333.00;;;7.71;66.98
6216;BME280;3141;49.234;9.326;2023-11-22T03:42:19;100329.94;;;7.97;66.97
6216;BME280;3141;49.234;9.326;2023-11-22T03:43:20;100337.09;;;8.17;67.24
6216;BME280;3141;49.234;9.326;2023-11-22T03:44:21;100337.22;;;8.16;66.46
6216;BME280;3141;49.234;9.326;2023-11-22T03:45:22;100334.13;;;8.00;66.28
6216;BME280;3141;49.234;9.326;2023-11-22T03:46:23;100336.78;;;8.00;65.86
6216;BME280;3141;49.234;9.326;2023-11-22T03:47:24;100346.31;;;8.01;65.88
6216;BME280;3141;49.234;9.326;2023-11-22T03:48:25;100345.41;;;7.91;66.04
6216;BME280;3141;49.234;9.326;2023-11-22T03:49:27;100350.19;;;7.97;65.75
6216;BME280;3141;49.234;9.326;2023-11-22T03:50:28;100349.00;;;7.79;65.60
6216;BME280;3141;49.234;9.326;2023-11-22T03:51:29;100356.78;;;7.91;65.72
6216;BME280;3141;49.234;9.326;2023-11-22T03:52:30;100343.34;;;7.94;66.98
6216;BME280;3141;49.234;9.326;2023-11-22T03:53:31;100345.34;;;8.13;66.46
6216;BME280;3141;49.234;9.326;2023-11-22T03:54:32;100347.75;;;8.05;66.67
6216;BME280;3141;49.234;9.326;2023-11-22T03:55:34;100343.09;;;7.97;65.98
6216;BME280;3141;49.234;9.326;2023-11-22T03:56:35;100345.50;;;8.00;65.87
6216;BME280;3141;49.234;9.326;2023-11-22T03:57:36;100347.03;;;8.03;66.34
6216;BME280;3141;49.234;9.326;2023-11-22T03:58:36;100354.09;;;8.02;66.06
6216;BME280;3141;49.234;9.326;2023-11-22T03:59:40;100346.69;;;8.07;66.03
6216;BME280;3141;49.234;9.326;2023-11-22T04:00:41;100351.00;;;7.97;65.95
6216;BME280;3141;49.234;9.326;2023-11-22T04:01:42;100344.88;;;8.08;66.86
6216;BME280;3141;49.234;9.326;2023-11-22T04:02:43;100344.41;;;8.14;66.26
6216;BME280;3141;49.234;9.326;2023-11-22T04:03:44;100350.84;;;8.21;65.65
6216;BME280;3141;49.234;9.326;2023-11-22T04:04:45;100347.44;;;7.98;64.92
6216;BME280;3141;49.234;9.326;2023-11-22T04:05:46;100345.53;;;7.89;64.91
6216;BME280;3141;49.234;9.326;2023-11-22T04:06:47;100346.00;;;7.94;65.35
6216;BME280;3141;49.234;9.326;2023-11-22T04:07:48;100350.41;;;8.05;65.39
6216;BME280;3141;49.234;9.326;2023-11-22T04:08:50;100346.31;;;8.12;64.98
6216;BME280;3141;49.234;9.326;2023-11-22T04:09:51;100348.44;;;8.18;64.99
6216;BME280;3141;49.234;9.326;2023-11-22T04:10:52;100353.84;;;8.28;65.06
6216;BME280;3141;49.234;9.326;2023-11-22T04:11:53;100357.06;;;8.31;64.83
6216;BME280;3141;49.234;9.326;2023-11-22T04:12:54;100353.25;;;8.24;64.47
6216;BME280;3141;49.234;9.326;2023-11-22T04:13:55;100361.38;;;8.21;65.08
6216;BME280;3141;49.234;9.326;2023-11-22T04:14:56;100355.88;;;8.13;65.26
6216;BME280;3141;49.234;9.326;2023-11-22T04:15:57;100348.38;;;7.97;65.08
6216;BME280;3141;49.234;9.326;2023-11-22T04:16:58;100353.09;;;8.14;64.57
6216;BME280;3141;49.234;9.326;2023-11-22T04:17:59;100342.50;;;7.94;63.90
6216;BME280;3141;49.234;9.326;2023-11-22T04:19:00;100351.38;;;7.93;65.54
6216;BME280;3141;49.234;9.326;2023-11-22T04:20:01;100350.78;;;7.78;64.79
6216;BME280;3141;49.234;9.326;2023-11-22T04:21:03;100354.16;;;7.80;65.29
6216;BME280;3141;49.234;9.326;2023-11-22T04:22:05;100353.53;;;7.88;65.15
6216;BME280;3141;49.234;9.326;2023-11-22T04:23:06;100355.81;;;7.92;65.47
6216;BME280;3141;49.234;9.326;2023-11-22T04:24:07;100354.84;;;7.93;64.88
6216;BME280;3141;49.234;9.326;2023-11-22T04:25:08;100358.88;;;8.08;64.47
6216;BME280;3141;49.234;9.326;2023-11-22T04:26:09;100365.25;;;7.84;64.17
6216;BME280;3141;49.234;9.326;2023-11-22T04:27:11;100371.47;;;7.94;64.74
6216;BME280;3141;49.234;9.326;2023-11-22T04:28:12;100368.63;;;7.86;64.43
6216;BME280;3141;49.234;9.326;2023-11-22T04:29:13;100373.41;;;7.92;64.99
6216;BME280;3141;49.234;9.326;2023-11-22T04:30:14;100374.22;;;7.92;64.32
6216;BME280;3141;49.234;9.326;2023-11-22T04:31:15;100370.75;;;8.03;64.40
6216;BME280;3141;49.234;9.326;2023-11-22T04:32:16;100370.66;;;7.93;63.86
6216;BME280;3141;49.234;9.326;2023-11-22T04:33:18;100382.47;;;7.99;64.10
6216;BME280;3141;49.234;9.326;2023-11-22T04:34:19;100385.09;;;7.99;65.28
6216;BME280;3141;49.234;9.326;2023-11-22T04:35:20;100387.63;;;8.00;64.89
6216;BME280;3141;49.234;9.326;2023-11-22T04:36:21;100388.25;;;7.93;64.05
6216;BME280;3141;49.234;9.326;2023-11-22T04:37:22;100393.84;;;8.10;64.50
6216;BME280;3141;49.234;9.326;2023-11-22T04:38:27;100395.16;;;8.05;64.38
6216;BME280;3141;49.234;9.326;2023-11-22T04:39:28;100404.00;;;8.15;64.24
6216;BME280;3141;49.234;9.326;2023-11-22T04:40:29;100402.09;;;8.28;64.05
6216;BME280;3141;49.234;9.326;2023-11-22T04:41:30;100402.22;;;8.15;64.30
6216;BME280;3141;49.234;9.326;2023-11-22T04:42:32;100399.75;;;7.92;64.19
6216;BME280;3141;49.234;9.326;2023-11-22T04:43:32;100405.59;;;7.84;64.20
6216;BME280;3141;49.234;9.326;2023-11-22T04:44:34;100406.19;;;7.77;64.24
6216;BME280;3141;49.234;9.326;2023-11-22T04:45:35;100404.78;;;7.73;64.59
6216;BME280;3141;49.234;9.326;2023-11-22T04:46:35;100398.78;;;7.38;63.86
6216;BME280;3141;49.234;9.326;2023-11-22T04:47:36;100405.00;;;7.48;64.39
6216;BME280;3141;49.234;9.326;2023-11-22T04:48:37;100408.59;;;7.69;64.54
6216;BME280;3141;49.234;9.326;2023-11-22T04:49:40;100405.00;;;7.59;64.17
6216;BME280;3141;49.234;9.326;2023-11-22T04:50:42;100403.56;;;7.66;64.03
6216;BME280;3141;49.234;9.326;2023-11-22T04:51:43;100402.38;;;7.59;64.17
6216;BME280;3141;49.234;9.326;2023-11-22T04:52:46;100403.31;;;7.58;64.21
6216;BME280;3141;49.234;9.326;2023-11-22T04:53:48;100414.94;;;7.55;64.58
6216;BME280;3141;49.234;9.326;2023-11-22T04:54:49;100419.38;;;7.66;64.08
6216;BME280;3141;49.234;9.326;2023-11-22T04:55:50;100420.19;;;7.55;64.14
6216;BME280;3141;49.234;9.326;2023-11-22T04:56:51;100425.69;;;7.41;64.21
6216;BME280;3141;49.234;9.326;2023-11-22T04:57:52;100425.19;;;7.36;64.08
6216;BME280;3141;49.234;9.326;2023-11-22T04:58:53;100413.59;;;7.28;64.01
6216;BME280;3141;49.234;9.326;2023-11-22T04:59:54;100414.47;;;6.93;63.48
6216;BME280;3141;49.234;9.326;2023-11-22T05:00:57;100426.00;;;7.26;63.38
6216;BME280;3141;49.234;9.326;2023-11-22T05:01:57;100419.34;;;7.44;63.40
6216;BME280;3141;49.234;9.326;2023-11-22T05:02:58;100432.97;;;7.38;63.99
6216;BME280;3141;49.234;9.326;2023-11-22T05:03:59;100429.81;;;7.11;64.29
6216;BME280;3141;49.234;9.326;2023-11-22T05:05:00;100438.25;;;7.03;64.25
6216;BME280;3141;49.234;9.326;2023-11-22T05:06:01;100436.53;;;6.91;63.64
6216;BME280;3141;49.234;9.326;2023-11-22T05:07:03;100434.56;;;7.06;63.10
6216;BME280;3141;49.234;9.326;2023-11-22T05:08:04;100441.66;;;6.81;62.46
6216;BME280;3141;49.234;9.326;2023-11-22T05:09:05;100439.22;;;6.78;62.58
6216;BME280;3141;49.234;9.326;2023-11-22T05:10:07;100445.63;;;6.63;62.27
6216;BME280;3141;49.234;9.326;2023-11-22T05:11:11;100452.16;;;6.81;63.18
6216;BME280;3141;49.234;9.326;2023-11-22T05:12:12;100445.28;;;6.68;61.67
6216;BME280;3141;49.234;9.326;2023-11-22T05:13:13;100450.63;;;6.66;61.88
6216;BME280;3141;49.234;9.326;2023-11-22T05:14:14;100461.66;;;6.71;61.71
6216;BME280;3141;49.234;9.326;2023-11-22T05:15:15;100456.72;;;6.90;61.66
6216;BME280;3141;49.234;9.326;2023-11-22T05:16:17;100456.59;;;6.92;61.71
6216;BME280;3141;49.234;9.326;2023-11-22T05:17:18;100465.56;;;6.89;60.88
6216;BME280;3141;49.234;9.326;2023-11-22T05:18:19;100459.41;;;7.01;60.80
6216;BME280;3141;49.234;9.326;2023-11-22T05:19:20;100453.56;;;6.74;60.58
6216;BME280;3141;49.234;9.326;2023-11-22T05:20:22;100462.88;;;6.78;60.99
6216;BME280;3141;49.234;9.326;2023-11-22T05:21:23;100465.19;;;6.83;61.13
6216;BME280;3141;49.234;9.326;2023-11-22T05:22:24;100460.16;;;7.15;61.03
6216;BME280;3141;49.234;9.326;2023-11-22T05:23:25;100458.72;;;7.11;60.58
6216;BME280;3141;49.234;9.326;2023-11-22T05:24:26;100464.59;;;7.14;60.66
6216;BME280;3141;49.234;9.326;2023-11-22T05:25:27;100463.19;;;6.86;60.57
6216;BME280;3141;49.234;9.326;2023-11-22T05:26:28;100454.31;;;6.87;61.12
6216;BME280;3141;49.234;9.326;2023-11-22T05:27:29;100444.88;;;6.61;60.68
6216;BME280;3141;49.234;9.326;2023-11-22T05:28:31;100454.97;;;6.67;60.76
6216;BME280;3141;49.234;9.326;2023-11-22T05:29:32;100449.31;;;6.84;61.01
6216;BME280;3141;49.234;9.326;2023-11-22T05:30:34;100458.09;;;6.72;60.87
6216;BME280;3141;49.234;9.326;2023-11-22T05:31:35;100457.41;;;6.81;60.63
6216;BME280;3141;49.234;9.326;2023-11-22T05:32:38;100452.84;;;6.72;60.47
6216;BME280;3141;49.234;9.326;2023-11-22T05:33:38;100458.97;;;6.84;60.27